Des Peres, Missouri
Current Conditions -  °F | °C
As of 4:51 AM on Tuesday 21 Oct 2014 (Local Time) from KSTL Reporting Station
Clear Clear  
Wind Chill:   Ceiling: Unl
Heat Index:   Visibility: 9mi
Dew Point:   Wind: 0mph
Humidity: 83%   Direction: NA
Pressure: 30.05"   Gusts: NA
Location:  38.5796°N, 90.4197°W
Report Text: KSTL 210951Z 00000KT 9SM CLR 09/07 A3005 RMK AO2 SLP172 T00940067
Loading
Personal Weather Stations






























Interactive Weather Map
Tropical Storm Tracking
New forecast layout! Learn more

10-Day Weather Forecast

Advertisements
Track Severe Weather on mobile